createdAt,value
2017-09-14T00:03:08.747Z,2
2017-09-14T00:13:08.646Z,2
2017-09-14T00:23:08.706Z,2
2017-09-14T00:33:08.701Z,1
2017-09-14T00:43:08.586Z,2
2017-09-14T00:53:08.601Z,2
2017-09-14T01:03:08.583Z,3
2017-09-14T01:13:08.563Z,3
2017-09-14T01:23:08.640Z,5
2017-09-14T01:33:08.614Z,9
2017-09-14T01:43:08.631Z,9
2017-09-14T01:53:08.612Z,10
2017-09-14T02:03:08.609Z,10
2017-09-14T02:13:08.644Z,8
2017-09-14T02:23:08.644Z,7
2017-09-14T02:33:08.643Z,6
2017-09-14T02:43:08.588Z,5
2017-09-14T02:53:08.564Z,5
2017-09-14T03:03:08.655Z,4
2017-09-14T03:13:08.570Z,4
2017-09-14T03:23:08.534Z,6
2017-09-14T03:33:08.569Z,5
2017-09-14T03:43:08.629Z,5
2017-09-14T03:53:08.655Z,6
2017-09-14T04:03:08.645Z,6
2017-09-14T04:13:08.596Z,6
2017-09-14T04:23:08.633Z,5
2017-09-14T04:33:08.613Z,7
2017-09-14T04:43:08.568Z,6
2017-09-14T04:53:08.620Z,6
2017-09-14T05:03:08.611Z,6
2017-09-14T05:13:08.710Z,4
2017-09-14T05:23:08.607Z,5
2017-09-14T05:33:08.557Z,5
2017-09-14T05:43:08.608Z,5
2017-09-14T05:53:08.573Z,6
2017-09-14T06:03:08.508Z,5
2017-09-14T06:13:08.634Z,4
2017-09-14T06:23:08.597Z,5
2017-09-14T06:33:08.610Z,5
2017-09-14T06:43:08.610Z,4
2017-09-14T06:53:08.513Z,4
2017-09-14T07:03:08.576Z,4
2017-09-14T07:13:08.551Z,5
2017-09-14T07:23:08.778Z,5
2017-09-14T07:33:08.757Z,6
2017-09-14T07:43:08.744Z,5
2017-09-14T07:53:08.841Z,1
2017-09-14T08:03:10.189Z,0
2017-09-14T08:13:09.910Z,1
2017-09-14T08:23:08.669Z,1
2017-09-14T08:33:08.767Z,2
2017-09-14T08:43:08.798Z,2
2017-09-14T08:53:09.021Z,2
2017-09-14T09:03:08.757Z,3
2017-09-14T09:13:09.111Z,3
2017-09-14T09:23:11.088Z,2
2017-09-14T09:33:08.867Z,1
2017-09-14T09:43:08.663Z,1
2017-09-14T09:53:08.640Z,1
2017-09-14T10:03:11.295Z,1
2017-09-14T10:13:10.347Z,1
2017-09-14T10:23:08.835Z,0
2017-09-14T10:33:11.581Z,1
2017-09-14T10:43:09.393Z,0
2017-09-14T10:53:08.696Z,1
2017-09-14T11:03:09.775Z,1
2017-09-14T11:13:12.157Z,1
2017-09-14T11:23:15.103Z,1
2017-09-14T11:33:08.624Z,1
2017-09-14T11:43:08.664Z,1
2017-09-14T11:53:08.650Z,2
2017-09-14T12:03:08.613Z,2
2017-09-14T12:13:08.660Z,2
2017-09-14T12:23:08.594Z,1
2017-09-14T12:33:08.671Z,2
2017-09-14T12:43:10.085Z,1
2017-09-14T12:53:08.868Z,1
2017-09-14T13:03:08.669Z,1
2017-09-14T13:13:08.575Z,1
2017-09-14T13:23:09.616Z,1
2017-09-14T13:33:08.703Z,1
2017-09-14T13:43:08.639Z,1
2017-09-14T13:53:08.637Z,1
2017-09-14T14:03:08.617Z,2
2017-09-14T14:13:08.572Z,2
2017-09-14T14:23:08.675Z,2
2017-09-14T14:33:08.669Z,3
2017-09-14T14:43:08.715Z,3
2017-09-14T14:53:08.642Z,2
2017-09-14T15:03:08.642Z,1
2017-09-14T15:13:10.605Z,1
2017-09-14T15:23:08.615Z,1
2017-09-14T15:33:09.119Z,1
2017-09-14T15:43:08.556Z,1
2017-09-14T15:53:08.629Z,1
2017-09-14T16:03:08.559Z,1
2017-09-14T16:13:08.576Z,1
2017-09-14T16:23:08.569Z,1
2017-09-14T16:33:08.576Z,1
2017-09-14T16:43:08.614Z,1
2017-09-14T16:53:08.600Z,1
2017-09-14T17:03:08.566Z,1
2017-09-14T17:13:08.587Z,1
2017-09-14T17:23:08.620Z,1
2017-09-14T17:33:08.649Z,1
2017-09-14T17:43:08.649Z,1
2017-09-14T17:53:08.698Z,1
2017-09-14T18:03:08.703Z,1
2017-09-14T18:13:08.684Z,1
2017-09-14T18:23:08.634Z,2
2017-09-14T18:33:08.691Z,1
2017-09-14T18:43:08.903Z,1
2017-09-14T18:53:08.922Z,1
2017-09-14T19:03:09.195Z,1
2017-09-14T19:13:08.719Z,2
2017-09-14T19:23:08.792Z,1
2017-09-14T19:33:08.893Z,2
2017-09-14T19:43:08.973Z,2
2017-09-14T19:53:08.758Z,2
2017-09-14T20:03:09.491Z,2
2017-09-14T20:13:26.209Z,2
2017-09-14T20:23:08.983Z,1
2017-09-14T20:33:09.398Z,2
2017-09-14T20:43:08.957Z,2
2017-09-14T20:53:09.032Z,1
2017-09-14T21:03:08.834Z,2
2017-09-14T21:13:09.069Z,2
2017-09-14T21:23:08.801Z,2
2017-09-14T21:33:08.933Z,2
2017-09-14T21:43:09.729Z,3
2017-09-14T21:53:08.911Z,3
2017-09-14T22:03:08.967Z,4
2017-09-14T22:13:09.235Z,3
2017-09-14T22:23:09.749Z,4
2017-09-14T22:33:09.349Z,3
2017-09-14T22:43:09.204Z,3
2017-09-14T22:53:09.803Z,3
2017-09-14T23:03:08.993Z,3
2017-09-14T23:13:08.957Z,3
2017-09-14T23:23:08.999Z,4
2017-09-14T23:33:08.932Z,3
2017-09-14T23:43:08.990Z,4
2017-09-14T23:53:09.034Z,5
